Time;durP1;ratioP1;P1;durP2;ratioP2;P2;SDS_P1;SDS_P2;PMS_P1;PMS_P2;Temp;Humidity;BMP_temperature;BMP_pressure;BME280_temperature;BME280_humidity;BME280_pressure;Samples;Min_cycle;Max_cycle;Signal;HPM_P1;HPM_P2
2022/08/25 00:01:14;;;;;;;2.95;1.20;;;;;;;22.26;88.09;100374.69;5006675;28;20068;-70
2022/08/25 00:03:40;;;;;;;1.45;1.25;;;;;;;22.28;87.01;100369.47;5004623;28;20065;-70
2022/08/25 00:06:06;;;;;;;1.77;1.52;;;;;;;22.30;86.72;100366.25;5021039;28;20040;-70
2022/08/25 00:08:33;;;;;;;2.35;1.10;;;;;;;22.31;86.98;100367.88;5023546;28;20036;-70
2022/08/25 00:11:00;;;;;;;4.32;1.40;;;;;;;22.29;86.93;100353.31;5040592;28;20489;-70
2022/08/25 00:13:26;;;;;;;4.35;1.50;;;;;;;22.29;87.09;100345.66;5039365;28;20029;-70
2022/08/25 00:15:52;;;;;;;2.85;1.30;;;;;;;22.31;86.90;100350.91;5036646;28;20035;-70
2022/08/25 00:18:18;;;;;;;1.70;1.30;;;;;;;22.30;87.42;100355.75;5007508;28;20034;-70
2022/08/25 00:20:43;;;;;;;3.28;1.50;;;;;;;22.30;87.31;100355.75;5058209;28;20036;-70
2022/08/25 00:23:09;;;;;;;2.75;1.45;;;;;;;22.29;87.02;100348.47;5023825;28;20507;-70
2022/08/25 00:25:34;;;;;;;2.95;1.30;;;;;;;22.30;87.38;100344.44;5005824;28;20060;-70
2022/08/25 00:28:00;;;;;;;3.72;1.35;;;;;;;22.29;87.32;100353.31;5023480;28;20029;-70
2022/08/25 00:30:25;;;;;;;3.75;1.40;;;;;;;22.29;86.89;100345.66;5023353;28;20036;-70
2022/08/25 00:32:51;;;;;;;2.58;1.45;;;;;;;22.28;86.96;100355.31;5026602;28;20083;-70
2022/08/25 00:35:16;;;;;;;3.42;1.40;;;;;;;22.26;85.91;100351.25;5007372;28;20104;-70
2022/08/25 00:37:42;;;;;;;4.80;1.27;;;;;;;22.27;86.06;100353.69;5003758;28;20029;-70
2022/08/25 00:40:07;;;;;;;2.13;1.40;;;;;;;22.28;86.83;100354.50;4998062;28;20040;-70
2022/08/25 00:42:33;;;;;;;1.95;1.15;;;;;;;22.27;87.03;100345.19;5020589;28;20047;-70
2022/08/25 00:44:58;;;;;;;2.63;1.40;;;;;;;22.24;85.91;100345.97;5023523;28;20494;-70
2022/08/25 00:47:24;;;;;;;4.50;1.38;;;;;;;22.23;85.82;100343.50;5015257;28;20025;-70
2022/08/25 00:49:55;;;;;;;2.08;1.50;;;;;;;22.23;86.37;100335.00;5039713;28;20057;-70
2022/08/25 00:52:30;;;;;;;2.88;1.60;;;;;;;22.22;86.28;100330.56;5007107;28;20025;-70
2022/08/25 00:55:05;;;;;;;4.35;1.50;;;;;;;22.19;86.25;100326.47;5006811;28;20040;-70
2022/08/25 00:57:52;;;;;;;4.03;1.23;;;;;;;22.19;86.91;100314.34;5006592;28;20041;-70
2022/08/25 01:00:28;;;;;;;3.80;1.52;;;;;;;22.15;85.73;100302.94;5011980;28;20037;-70
2022/08/25 01:02:55;;;;;;;1.98;1.23;;;;;;;22.15;86.23;100299.28;5024180;28;20036;-70
2022/08/25 01:05:21;;;;;;;2.47;1.60;;;;;;;22.12;87.01;100297.22;5022742;28;20063;-70
2022/08/25 01:07:49;;;;;;;3.38;1.38;;;;;;;22.09;86.17;100293.97;5006392;28;20029;-70
2022/08/25 01:10:15;;;;;;;3.35;1.55;;;;;;;22.07;86.26;100295.53;4996555;28;20037;-70
2022/08/25 01:12:41;;;;;;;2.47;1.60;;;;;;;22.02;85.62;100299.47;5006261;28;20029;-70
2022/08/25 01:15:08;;;;;;;2.63;1.70;;;;;;;22.03;86.57;100292.63;5003806;28;20621;-70
2022/08/25 01:17:53;;;;;;;2.05;1.20;;;;;;;22.00;86.35;100299.03;5016293;28;20033;-70
2022/08/25 01:20:20;;;;;;;4.43;1.70;;;;;;;22.00;87.30;100313.19;5013021;28;20036;-69
2022/08/25 01:22:46;;;;;;;2.00;1.30;;;;;;;21.95;86.69;100321.97;4989803;28;20044;-70
2022/08/25 01:25:41;;;;;;;2.05;1.50;;;;;;;21.93;87.58;100324.38;5022437;28;20498;-70
2022/08/25 01:28:07;;;;;;;4.45;1.45;;;;;;;21.91;87.35;100342.91;5052062;28;20037;-70
2022/08/25 01:30:34;;;;;;;2.50;1.60;;;;;;;21.88;87.27;100340.81;5022694;28;20670;-70
2022/08/25 01:33:03;;;;;;;3.80;1.40;;;;;;;21.81;86.69;100341.50;5003062;28;20060;-70
2022/08/25 01:35:28;;;;;;;2.25;1.40;;;;;;;21.78;87.10;100343.06;5020258;28;20029;-70
2022/08/25 01:37:54;;;;;;;4.03;1.88;;;;;;;21.77;87.87;100349.91;4989805;28;20037;-70
2022/08/25 01:40:20;;;;;;;2.72;1.67;;;;;;;21.70;87.18;100357.41;5021971;28;20028;-69
2022/08/25 01:43:09;;;;;;;3.80;1.88;;;;;;;21.71;88.35;100357.06;5005197;28;20030;-70
2022/08/25 01:45:35;;;;;;;4.93;2.03;;;;;;;21.70;87.89;100368.72;5017873;28;20499;-70
2022/08/25 01:48:01;;;;;;;3.25;2.42;;;;;;;21.68;88.75;100371.13;5021813;28;20037;-70
2022/08/25 01:50:26;;;;;;;3.78;2.67;;;;;;;21.66;88.91;100377.16;5022026;28;20033;-70
2022/08/25 01:52:59;;;;;;;5.65;3.63;;;;;;;21.62;89.42;100393.22;5022229;28;20056;-70
2022/08/25 01:55:25;;;;;;;6.38;3.17;;;;;;;21.60;89.10;100398.41;5002141;28;20061;-70
2022/08/25 01:57:50;;;;;;;5.63;3.63;;;;;;;21.57;88.81;100399.97;5020672;28;20094;-70
2022/08/25 02:00:17;;;;;;;11.23;6.47;;;;;;;21.53;92.57;100396.25;5001966;28;20036;-70
2022/08/25 02:02:43;;;;;;;11.32;7.28;;;;;;;21.46;93.84;100401.75;5022227;28;20370;-70
2022/08/25 02:05:09;;;;;;;9.98;5.90;;;;;;;21.41;93.07;100399.22;5021073;28;20032;-70
2022/08/25 02:07:35;;;;;;;15.52;10.52;;;;;;;21.37;96.79;100412.47;5021996;28;20040;-70
2022/08/25 02:10:03;;;;;;;9.35;6.55;;;;;;;21.38;93.71;100425.38;5021504;28;20040;-70
2022/08/25 02:12:30;;;;;;;10.43;8.02;;;;;;;21.41;94.31;100428.28;5022467;28;20497;-70
2022/08/25 02:14:57;;;;;;;12.35;7.35;;;;;;;21.37;95.17;100423.75;5005539;28;20029;-70
2022/08/25 02:17:22;;;;;;;16.75;11.15;;;;;;;21.33;98.12;100426.44;5002748;28;20037;-70
2022/08/25 02:19:48;;;;;;;14.00;9.93;;;;;;;21.31;97.04;100428.00;5028587;28;20040;-70
2022/08/25 02:22:14;;;;;;;17.33;12.07;;;;;;;21.28;99.55;100423.91;5019265;28;20201;-70
2022/08/25 02:24:39;;;;;;;16.63;10.50;;;;;;;21.28;98.69;100421.09;5015756;28;20041;-70
2022/08/25 02:27:05;;;;;;;19.88;12.93;;;;;;;21.25;100.00;100419.00;5036579;28;20619;-70
2022/08/25 02:29:30;;;;;;;21.42;13.55;;;;;;;21.24;100.00;100417.38;5036269;28;20079;-70
2022/08/25 02:31:56;;;;;;;16.63;11.68;;;;;;;21.23;100.00;100415.75;4988850;28;20041;-70
2022/08/25 02:34:22;;;;;;;16.10;11.32;;;;;;;21.24;100.00;100402.44;4998711;28;20021;-70
2022/08/25 02:36:47;;;;;;;12.30;9.32;;;;;;;21.28;99.10;100386.38;5005230;28;20021;-70
2022/08/25 02:39:13;;;;;;;15.57;10.48;;;;;;;21.26;100.00;100383.94;5017644;28;20398;-70
2022/08/25 02:41:38;;;;;;;15.32;11.40;;;;;;;21.25;100.00;100384.31;4988017;28;20033;-70
2022/08/25 02:44:04;;;;;;;15.63;10.18;;;;;;;21.18;100.00;100379.31;5032147;28;20032;-70
2022/08/25 02:46:29;;;;;;;13.65;9.45;;;;;;;21.17;100.00;100372.88;5021147;28;20033;-70
2022/08/25 02:48:55;;;;;;;15.90;9.60;;;;;;;21.14;100.00;100386.88;5003321;28;20496;-70
2022/08/25 02:51:22;;;;;;;13.65;9.43;;;;;;;21.14;100.00;100378.41;5004984;28;20027;-70
2022/08/25 02:53:47;;;;;;;17.83;9.65;;;;;;;21.12;100.00;100367.50;5004020;28;20136;-70
2022/08/25 02:56:13;;;;;;;13.15;7.88;;;;;;;21.14;100.00;100362.28;5018939;28;20029;-70
2022/08/25 02:58:38;;;;;;;11.35;7.50;;;;;;;21.10;100.00;100354.94;5021020;28;20033;-70
2022/08/25 03:01:04;;;;;;;13.77;8.30;;;;;;;21.07;100.00;100353.66;4986715;28;20047;-70
2022/08/25 03:03:30;;;;;;;10.57;7.40;;;;;;;21.02;100.00;100353.94;4989784;28;20037;-70
2022/08/25 03:05:56;;;;;;;13.45;8.43;;;;;;;20.91;100.00;100353.69;5033622;28;20036;-70
2022/08/25 03:08:21;;;;;;;10.15;7.18;;;;;;;20.95;100.00;100365.09;5004486;28;20048;-70
2022/08/25 03:10:47;;;;;;;10.15;6.00;;;;;;;20.94;100.00;100360.63;5004393;28;20056;-70
2022/08/25 03:13:12;;;;;;;10.52;5.43;;;;;;;20.90;100.00;100357.72;5037770;28;20090;-70
2022/08/25 03:15:38;;;;;;;8.07;6.07;;;;;;;20.89;100.00;100355.25;5017950;28;20474;-70
2022/08/25 03:18:04;;;;;;;6.25;3.67;;;;;;;20.94;99.96;100354.97;5021120;28;20033;-70
2022/08/25 03:20:29;;;;;;;8.85;5.75;;;;;;;20.86;100.00;100353.16;5017077;28;20068;-70
2022/08/25 03:22:55;;;;;;;6.88;4.30;;;;;;;20.85;100.00;100354.38;5017682;28;20467;-70
2022/08/25 03:28:05;;;;;;;8.15;5.47;;;;;;;20.74;100.00;100348.47;5012157;28;20025;-70
2022/08/25 03:30:31;;;;;;;7.70;5.18;;;;;;;20.69;100.00;100346.72;5017839;28;20034;-70
2022/08/25 03:32:56;;;;;;;7.32;4.28;;;;;;;20.70;100.00;100351.22;5034278;28;20439;-70
2022/08/25 03:35:22;;;;;;;7.40;3.47;;;;;;;20.68;100.00;100338.66;5002058;28;20419;-70
2022/08/25 03:37:47;;;;;;;5.90;3.13;;;;;;;20.67;100.00;100343.47;5021253;28;20030;-70
2022/08/25 03:40:13;;;;;;;4.97;3.05;;;;;;;20.63;100.00;100341.75;5020723;28;20069;-70
2022/08/25 03:42:43;;;;;;;6.20;4.13;;;;;;;20.56;100.00;100342.41;4988797;28;20389;-70
2022/08/25 03:45:10;;;;;;;5.47;3.42;;;;;;;20.51;100.00;100351.13;5021532;28;20092;-70
2022/08/25 03:47:36;;;;;;;6.63;3.65;;;;;;;20.48;100.00;100352.66;5026780;28;20041;-70
2022/08/25 03:50:03;;;;;;;6.78;3.65;;;;;;;20.45;100.00;100344.13;5020984;28;20033;-70
2022/08/25 03:52:29;;;;;;;4.63;2.60;;;;;;;20.45;100.00;100355.41;5020749;28;20029;-70
2022/08/25 03:54:54;;;;;;;5.05;3.38;;;;;;;20.38;100.00;100352.38;5006598;28;20386;-70
2022/08/25 03:57:20;;;;;;;7.05;3.58;;;;;;;20.37;100.00;100347.94;5019132;28;20092;-70
2022/08/25 03:59:45;;;;;;;6.88;3.35;;;;;;;20.33;100.00;100345.00;5020399;28;20041;-70
2022/08/25 04:02:11;;;;;;;7.80;3.58;;;;;;;20.27;100.00;100358.56;5001657;28;20038;-70
2022/08/25 04:04:36;;;;;;;4.95;2.50;;;;;;;20.24;100.00;100364.94;5020577;28;20060;-70
2022/08/25 04:07:02;;;;;;;6.85;3.17;;;;;;;20.29;100.00;100373.13;5020590;28;20033;-70
2022/08/25 04:09:27;;;;;;;8.18;3.28;;;;;;;20.29;100.00;100384.41;5003805;28;20038;-70
2022/08/25 04:11:53;;;;;;;7.50;3.60;;;;;;;20.23;100.00;100385.88;5037318;28;20041;-70
2022/08/25 04:14:19;;;;;;;5.68;2.55;;;;;;;20.26;100.00;100390.78;5020453;28;20036;-70
2022/08/25 04:16:45;;;;;;;5.10;2.28;;;;;;;20.29;100.00;100398.50;4983915;28;20033;-70
2022/08/25 04:19:10;;;;;;;3.90;2.28;;;;;;;20.33;100.00;100400.59;5017669;28;20038;-70
2022/08/25 04:21:37;;;;;;;2.60;1.70;;;;;;;20.34;100.00;100403.06;5013788;28;20109;-70
2022/08/25 04:24:03;;;;;;;8.13;2.92;;;;;;;20.35;100.00;100393.41;4990064;28;20030;-70
2022/08/25 04:26:32;;;;;;;5.63;2.05;;;;;;;20.39;100.00;100404.78;5019254;28;20036;-70
2022/08/25 04:28:58;;;;;;;8.57;2.42;;;;;;;20.41;99.78;100397.59;5020459;28;20104;-70
2022/08/25 04:31:24;;;;;;;5.53;2.20;;;;;;;20.42;99.40;100401.22;5004138;28;20036;-70
2022/08/25 04:33:50;;;;;;;6.47;2.70;;;;;;;20.38;100.00;100395.50;5036727;28;20025;-70
2022/08/25 04:36:16;;;;;;;5.82;2.25;;;;;;;20.34;100.00;100396.59;5020230;28;20030;-70
2022/08/25 04:38:42;;;;;;;5.75;1.90;;;;;;;20.35;99.34;100396.22;5020131;28;20076;-70
2022/08/25 04:41:08;;;;;;;9.13;2.50;;;;;;;20.35;100.00;100398.25;5003550;28;20083;-70
2022/08/25 04:43:34;;;;;;;4.18;1.85;;;;;;;20.37;100.00;100387.44;5020049;28;20025;-70
2022/08/25 04:46:06;;;;;;;3.80;1.85;;;;;;;20.37;99.18;100393.06;5036430;28;20017;-70
2022/08/25 04:48:32;;;;;;;6.78;2.50;;;;;;;20.39;100.00;100393.50;5019974;28;20465;-70
2022/08/25 04:50:57;;;;;;;5.55;2.22;;;;;;;20.38;99.42;100395.50;5018141;28;20025;-70
2022/08/25 04:53:23;;;;;;;4.47;2.08;;;;;;;20.42;99.91;100395.59;5019465;28;20548;-69
2022/08/25 04:55:48;;;;;;;5.70;1.77;;;;;;;20.43;100.00;100402.88;5035520;28;20044;-70
2022/08/25 04:58:14;;;;;;;10.25;2.20;;;;;;;20.47;99.24;100396.13;5019613;28;20087;-70
2022/08/25 05:00:40;;;;;;;6.88;2.10;;;;;;;20.44;98.55;100398.88;4999692;28;20034;-70
2022/08/25 05:03:06;;;;;;;6.78;2.13;;;;;;;20.41;99.27;100393.97;5019849;28;20033;-70
2022/08/25 05:05:33;;;;;;;5.90;2.10;;;;;;;20.39;98.88;100399.94;5019786;28;20037;-70
2022/08/25 05:07:58;;;;;;;5.05;2.13;;;;;;;20.37;100.00;100396.69;5002935;28;20390;-70
2022/08/25 05:10:24;;;;;;;5.82;2.28;;;;;;;20.37;99.63;100401.53;5019288;28;20052;-70
2022/08/25 05:12:50;;;;;;;5.63;2.20;;;;;;;20.31;100.00;100410.25;5023665;28;20025;-70
2022/08/25 05:17:59;;;;;;;5.93;2.20;;;;;;;20.29;100.00;100404.16;5020292;28;20038;-70
2022/08/25 05:20:25;;;;;;;4.43;1.80;;;;;;;20.28;100.00;100391.25;4986634;28;20029;-70
2022/08/25 05:22:51;;;;;;;8.13;2.38;;;;;;;20.25;100.00;100388.31;5019247;28;20451;-70
2022/08/25 05:25:16;;;;;;;8.73;2.35;;;;;;;20.24;100.00;100389.50;5012877;28;20030;-70
2022/08/25 05:27:42;;;;;;;8.38;2.42;;;;;;;20.24;100.00;100384.66;5015757;28;20033;-70
2022/08/25 05:30:09;;;;;;;8.18;2.53;;;;;;;20.22;100.00;100378.56;5009311;28;20041;-70
2022/08/25 05:32:35;;;;;;;10.23;2.53;;;;;;;20.12;100.00;100373.47;5035904;28;20033;-70
2022/08/25 05:35:00;;;;;;;8.10;2.22;;;;;;;20.08;100.00;100375.38;4999273;28;20096;-70
2022/08/25 05:37:26;;;;;;;8.07;2.10;;;;;;;20.09;100.00;100383.47;5033745;28;20033;-70
2022/08/25 05:39:51;;;;;;;7.82;2.35;;;;;;;20.05;100.00;100379.72;5002522;28;20041;-70
2022/08/25 05:42:17;;;;;;;8.52;2.47;;;;;;;20.05;100.00;100391.00;4999420;28;20034;-70
2022/08/25 05:44:42;;;;;;;8.98;2.38;;;;;;;19.96;100.00;100392.38;5032250;28;20025;-70
2022/08/25 05:47:07;;;;;;;6.90;1.88;;;;;;;20.01;100.00;100397.75;5035227;28;20025;-70
2022/08/25 05:49:33;;;;;;;5.68;2.13;;;;;;;20.04;100.00;100395.03;5035366;28;20044;-70
2022/08/25 05:51:58;;;;;;;11.25;1.90;;;;;;;20.05;100.00;100401.47;5009709;28;20504;-70
2022/08/25 05:54:24;;;;;;;7.80;2.40;;;;;;;20.02;100.00;100399.38;5018074;28;20093;-70
2022/08/25 05:56:50;;;;;;;9.18;2.45;;;;;;;19.97;100.00;100399.63;5001857;28;20060;-70
2022/08/25 05:59:15;;;;;;;8.90;2.15;;;;;;;19.98;100.00;100415.38;5018639;28;20040;-70
2022/08/25 06:04:25;;;;;;;5.50;1.83;;;;;;;19.96;100.00;100421.38;5020943;28;20484;-70
2022/08/25 06:06:53;;;;;;;9.70;2.17;;;;;;;19.98;100.00;100429.47;4997434;28;20111;-70
2022/08/25 06:09:19;;;;;;;7.03;1.90;;;;;;;19.99;100.00;100431.09;5018768;28;20064;-70
2022/08/25 06:11:46;;;;;;;6.25;1.85;;;;;;;19.99;100.00;100431.91;5012628;28;20030;-70
2022/08/25 06:14:11;;;;;;;9.70;2.38;;;;;;;19.90;100.00;100424.81;4993146;28;20033;-70
2022/08/25 06:16:37;;;;;;;12.93;2.42;;;;;;;19.90;100.00;100424.81;5012795;28;20037;-70
2022/08/25 06:19:03;;;;;;;7.88;2.15;;;;;;;19.97;100.00;100444.72;5017781;28;20029;-70
2022/08/25 06:21:29;;;;;;;5.93;1.73;;;;;;;19.98;100.00;100435.94;5001932;28;20049;-70
2022/08/25 06:23:54;;;;;;;8.77;2.03;;;;;;;19.99;100.00;100437.56;5000126;28;20096;-70
2022/08/25 06:26:20;;;;;;;7.85;2.00;;;;;;;19.95;100.00;100447.94;5014936;28;20038;-70
2022/08/25 06:28:45;;;;;;;6.82;2.10;;;;;;;19.99;100.00;100450.84;5032340;28;20041;-70
2022/08/25 06:31:11;;;;;;;7.15;1.80;;;;;;;19.97;100.00;100444.72;5015204;28;20033;-70
2022/08/25 06:33:37;;;;;;;7.63;1.73;;;;;;;20.02;100.00;100452.94;5001881;28;20021;-70
2022/08/25 06:36:03;;;;;;;5.43;1.70;;;;;;;20.01;100.00;100463.41;5018234;28;20039;-70
2022/08/25 06:38:28;;;;;;;8.32;1.90;;;;;;;20.01;100.00;100456.94;5009980;28;20026;-70
2022/08/25 06:40:56;;;;;;;5.95;1.88;;;;;;;20.02;100.00;100464.22;5006518;28;20037;-70
2022/08/25 06:43:22;;;;;;;8.45;2.35;;;;;;;20.05;100.00;100469.94;5002532;28;20026;-70
2022/08/25 06:45:47;;;;;;;6.82;2.00;;;;;;;20.05;100.00;100467.13;5034684;28;20032;-70
2022/08/25 06:48:13;;;;;;;9.93;1.98;;;;;;;20.07;100.00;100476.03;5001664;28;20056;-70
2022/08/25 06:50:40;;;;;;;7.55;1.77;;;;;;;20.05;100.00;100483.22;5018203;28;20063;-70
2022/08/25 06:53:05;;;;;;;5.15;1.80;;;;;;;20.12;100.00;100494.72;5001654;28;20417;-70
2022/08/25 06:55:31;;;;;;;4.68;1.50;;;;;;;20.11;100.00;100490.22;5000832;28;20033;-70
2022/08/25 06:57:56;;;;;;;7.97;1.88;;;;;;;20.12;100.00;100488.25;4999686;28;20109;-70
2022/08/25 07:00:22;;;;;;;6.75;1.80;;;;;;;20.13;100.00;100496.34;4984980;28;20060;-70
2022/08/25 07:02:47;;;;;;;8.15;2.00;;;;;;;20.17;100.00;100494.47;5018011;28;20033;-70
2022/08/25 07:05:13;;;;;;;7.93;1.50;;;;;;;20.21;100.00;100497.38;5017999;28;20036;-70
2022/08/25 07:07:38;;;;;;;7.53;1.92;;;;;;;20.21;100.00;100492.53;5001352;28;20033;-70
2022/08/25 07:10:05;;;;;;;5.20;1.42;;;;;;;20.23;100.00;100498.66;5013810;28;20041;-70
2022/08/25 07:12:30;;;;;;;4.75;1.30;;;;;;;20.25;100.00;100503.91;5022008;28;20486;-70
2022/08/25 07:14:56;;;;;;;6.30;1.63;;;;;;;20.29;100.00;100497.22;5021577;28;20048;-70
2022/08/25 07:17:22;;;;;;;4.97;1.23;;;;;;;20.29;100.00;100500.03;4987400;28;20500;-70
2022/08/25 07:19:48;;;;;;;9.52;2.25;;;;;;;20.31;100.00;100494.84;5020010;28;20038;-70
2022/08/25 07:22:13;;;;;;;4.93;1.70;;;;;;;20.36;100.00;100496.56;5036282;28;20053;-70
2022/08/25 07:24:39;;;;;;;4.78;1.30;;;;;;;20.41;100.00;100506.78;5021101;28;20029;-70
2022/08/25 07:27:05;;;;;;;6.95;1.90;;;;;;;20.45;100.00;100507.72;5024157;28;20044;-70
2022/08/25 07:29:32;;;;;;;7.18;1.13;;;;;;;20.48;100.00;100509.81;5037478;28;20029;-70
2022/08/25 07:31:59;;;;;;;7.47;1.80;;;;;;;20.56;100.00;100516.47;5021749;28;20040;-70
2022/08/25 07:37:08;;;;;;;4.22;1.10;;;;;;;20.60;100.00;100515.41;5032961;28;20036;-70
2022/08/25 07:39:34;;;;;;;6.90;1.23;;;;;;;20.64;100.00;100509.84;5018030;28;20037;-70
2022/08/25 07:42:00;;;;;;;2.97;0.90;;;;;;;20.70;100.00;100516.88;5020414;28;20029;-70
2022/08/25 07:44:26;;;;;;;3.13;1.20;;;;;;;20.75;100.00;100519.41;5011910;28;20434;-70
2022/08/25 07:46:52;;;;;;;5.45;1.10;;;;;;;20.78;100.00;100515.06;4983098;28;20033;-70
2022/08/25 07:49:18;;;;;;;6.20;1.13;;;;;;;20.82;100.00;100513.97;5037796;28;20037;-70
2022/08/25 07:51:44;;;;;;;4.60;1.08;;;;;;;20.88;100.00;100517.34;5004792;28;20040;-70
2022/08/25 07:54:09;;;;;;;3.83;1.20;;;;;;;20.89;100.00;100527.44;5004305;28;20068;-70
2022/08/25 07:56:35;;;;;;;3.20;1.10;;;;;;;20.95;100.00;100523.19;4999082;28;20022;-70
2022/08/25 07:59:00;;;;;;;5.35;1.15;;;;;;;21.02;100.00;100536.66;5038433;28;20032;-70
2022/08/25 08:01:26;;;;;;;4.97;1.05;;;;;;;21.07;100.00;100530.72;5020701;28;20554;-70
2022/08/25 08:03:51;;;;;;;5.80;1.15;;;;;;;21.13;100.00;100530.06;5037452;28;20482;-70
2022/08/25 08:06:19;;;;;;;5.78;1.20;;;;;;;21.17;100.00;100531.00;5003910;28;20021;-70
2022/08/25 08:08:47;;;;;;;7.45;1.50;;;;;;;21.20;100.00;100526.59;5020670;28;20045;-70
2022/08/25 08:11:25;;;;;;;7.03;1.30;;;;;;;21.27;100.00;100526.78;5005019;28;20030;-70
2022/08/25 08:13:50;;;;;;;6.80;1.60;;;;;;;21.35;100.00;100541.91;5021921;28;20030;-70
2022/08/25 08:16:16;;;;;;;5.85;1.50;;;;;;;21.41;100.00;100532.00;5014391;28;20083;-70
2022/08/25 08:18:42;;;;;;;7.43;1.27;;;;;;;21.50;100.00;100546.72;5020416;28;20037;-70
2022/08/25 08:21:21;;;;;;;8.10;1.40;;;;;;;21.55;100.00;100540.00;5006307;28;20056;-70
2022/08/25 08:23:47;;;;;;;6.13;1.10;;;;;;;21.62;100.00;100548.66;5024326;28;20039;-69
2022/08/25 08:26:13;;;;;;;3.33;1.10;;;;;;;21.68;100.00;100552.00;5023518;28;20473;-69
2022/08/25 08:28:38;;;;;;;6.50;1.23;;;;;;;21.73;100.00;100548.88;5023437;28;20032;-70
2022/08/25 08:31:04;;;;;;;6.07;1.30;;;;;;;21.75;100.00;100543.66;5020307;28;20375;-69
2022/08/25 08:33:30;;;;;;;3.78;1.10;;;;;;;21.79;100.00;100550.25;5040253;28;20040;-70
2022/08/25 08:36:09;;;;;;;7.97;1.52;;;;;;;21.83;100.00;100548.28;4990620;28;20065;-69
2022/08/25 08:38:35;;;;;;;5.18;1.23;;;;;;;21.83;100.00;100551.94;5023085;28;20044;-69
2022/08/25 08:44:26;;;;;;;4.45;1.20;;;;;;;21.84;100.00;100558.41;5052131;28;20033;-70
2022/08/25 08:47:02;;;;;;;6.40;1.52;;;;;;;21.79;100.00;100555.91;5042538;28;20040;-70
2022/08/25 08:49:32;;;;;;;3.28;1.20;;;;;;;21.79;100.00;100550.25;5012865;28;20498;-69
2022/08/25 08:52:00;;;;;;;4.63;1.30;;;;;;;21.73;100.00;100554.53;5023386;28;20074;-69
2022/08/25 08:54:25;;;;;;;7.20;1.60;;;;;;;21.67;100.00;100558.81;5023015;28;20492;-69
2022/08/25 08:57:03;;;;;;;3.20;1.17;;;;;;;21.68;100.00;100563.31;5019825;28;20102;-69
2022/08/25 08:59:32;;;;;;;4.00;1.27;;;;;;;21.64;100.00;100564.00;4997222;28;20029;-70
2022/08/25 09:01:59;;;;;;;5.60;1.05;;;;;;;21.56;100.00;100570.72;5006346;28;20025;-69
2022/08/25 09:04:35;;;;;;;2.60;1.25;;;;;;;21.44;100.00;100570.00;5006688;28;20025;-70
2022/08/25 09:07:03;;;;;;;3.92;1.17;;;;;;;21.46;100.00;100571.28;5033508;28;20485;-70
2022/08/25 09:09:30;;;;;;;4.03;1.27;;;;;;;21.36;100.00;100568.97;4998147;28;20120;-70
2022/08/25 09:12:33;;;;;;;5.70;1.48;;;;;;;21.35;100.00;100570.97;5023217;28;20040;-69
2022/08/25 09:15:05;;;;;;;4.65;1.42;;;;;;;21.34;100.00;100572.16;5022191;28;20604;-70
2022/08/25 09:17:39;;;;;;;3.55;1.13;;;;;;;21.32;100.00;100568.88;5031878;28;20473;-69
2022/08/25 09:20:14;;;;;;;3.25;1.00;;;;;;;21.27;100.00;100571.16;5039091;28;20052;-69
2022/08/25 09:22:42;;;;;;;3.72;0.90;;;;;;;21.29;100.00;100583.75;5003752;28;20064;-70
2022/08/25 09:25:11;;;;;;;3.17;1.33;;;;;;;21.33;100.00;100566.88;5045104;28;20029;-70
2022/08/25 09:27:45;;;;;;;1.90;1.15;;;;;;;21.36;100.00;100572.59;5029828;28;20124;-69
2022/08/25 09:30:13;;;;;;;4.82;1.80;;;;;;;21.39;100.00;100571.09;5015859;28;20118;-69
2022/08/25 09:33:02;;;;;;;2.85;1.80;;;;;;;21.46;100.00;100571.28;5003531;28;20049;-69
2022/08/25 09:35:30;;;;;;;3.47;1.70;;;;;;;21.53;100.00;100576.25;4990477;28;20029;-70
2022/08/25 09:38:02;;;;;;;3.08;1.50;;;;;;;21.64;100.00;100582.97;5002919;28;20120;-70
2022/08/25 09:40:32;;;;;;;1.90;1.30;;;;;;;21.73;100.00;100585.59;5014325;28;20034;-69
2022/08/25 09:43:08;;;;;;;3.17;1.80;;;;;;;21.84;100.00;100587.53;5020028;28;20040;-69
2022/08/25 09:45:40;;;;;;;7.35;5.68;;;;;;;21.95;100.00;100593.38;4987583;28;20021;-69
2022/08/25 09:48:24;;;;;;;7.10;6.50;;;;;;;22.00;100.00;100597.94;5017666;28;20040;-70
2022/08/25 09:50:50;;;;;;;6.95;6.25;;;;;;;22.05;100.00;100598.47;5035072;28;20701;-69
2022/08/25 09:53:16;;;;;;;6.03;5.43;;;;;;;22.08;100.00;100592.06;5002594;28;20037;-69
2022/08/25 09:55:42;;;;;;;5.68;5.20;;;;;;;22.15;100.00;100597.09;5000013;28;20044;-69
2022/08/25 09:58:20;;;;;;;3.78;3.30;;;;;;;22.20;99.35;100607.31;5002423;28;20575;-69
2022/08/25 10:01:00;;;;;;;3.50;3.15;;;;;;;22.30;98.85;100598.22;5000191;28;20376;-69
2022/08/25 10:03:25;;;;;;;2.70;2.50;;;;;;;22.34;97.87;100606.78;5018946;28;20029;-70
2022/08/25 10:05:54;;;;;;;2.70;2.08;;;;;;;22.43;97.20;100611.06;5018702;28;20040;-70
2022/08/25 10:08:37;;;;;;;1.85;1.30;;;;;;;22.52;96.79;100600.31;5034838;28;20098;-70
2022/08/25 10:11:07;;;;;;;3.30;1.30;;;;;;;22.61;95.55;100602.09;5014100;28;20041;-70
2022/08/25 10:13:38;;;;;;;1.98;1.05;;;;;;;22.73;95.23;100593.44;5017215;28;20030;-70
2022/08/25 10:16:24;;;;;;;1.02;0.80;;;;;;;22.82;94.54;100591.19;5011274;28;20093;-69
2022/08/25 10:19:26;;;;;;;1.63;0.70;;;;;;;22.93;93.38;100583.72;5016889;28;20033;-70
2022/08/25 10:22:06;;;;;;;3.28;0.70;;;;;;;23.02;93.39;100585.53;5008229;28;20557;-70
2022/08/25 10:24:33;;;;;;;1.05;0.45;;;;;;;23.14;91.90;100585.31;5043947;28;20049;-70
2022/08/25 10:27:23;;;;;;;2.15;0.40;;;;;;;23.25;90.54;100585.50;5001865;28;20501;-69
2022/08/25 10:30:09;;;;;;;0.90;0.50;;;;;;;23.42;90.09;100582.97;5035267;28;20112;-70
2022/08/25 10:32:57;;;;;;;0.80;0.40;;;;;;;23.59;88.97;100577.97;5019249;28;20037;-69
2022/08/25 10:35:46;;;;;;;1.55;0.43;;;;;;;23.71;88.06;100574.97;5034498;28;20040;-69
2022/08/25 10:38:20;;;;;;;1.85;0.43;;;;;;;23.88;87.01;100576.41;5020785;28;20105;-70
2022/08/25 10:40:59;;;;;;;1.92;0.40;;;;;;;24.01;85.58;100580.63;5034984;28;20065;-70
2022/08/25 10:43:34;;;;;;;0.65;0.30;;;;;;;24.17;84.76;100582.47;5026015;28;20030;-70
2022/08/25 10:46:28;;;;;;;0.35;0.20;;;;;;;24.32;84.09;100575.78;5003932;28;20115;-70
2022/08/25 10:49:09;;;;;;;1.15;0.43;;;;;;;24.42;83.58;100577.13;5039785;28;20030;-69
2022/08/25 10:52:00;;;;;;;0.90;0.20;;;;;;;24.52;82.55;100587.84;5034169;28;20045;-69
2022/08/25 10:54:41;;;;;;;0.57;0.30;;;;;;;24.51;81.76;100589.81;5030155;28;20037;-69
2022/08/25 10:57:58;;;;;;;1.75;0.20;;;;;;;24.58;81.60;100588.31;5016813;28;20034;-69
2022/08/25 11:00:28;;;;;;;0.35;0.22;;;;;;;24.60;80.64;100600.06;5002469;28;20397;-70
2022/08/25 11:03:14;;;;;;;1.48;0.30;;;;;;;24.61;80.63;100599.69;5022329;28;20059;-69
2022/08/25 11:05:42;;;;;;;1.08;0.30;;;;;;;24.60;80.40;100602.91;4999347;28;20470;-70
2022/08/25 11:08:34;;;;;;;0.88;0.30;;;;;;;24.61;79.20;100596.84;5005346;28;20049;-69
2022/08/25 11:11:10;;;;;;;0.15;0.10;;;;;;;24.66;79.39;100601.38;5038295;28;20041;-69
2022/08/25 11:13:42;;;;;;;0.73;0.20;;;;;;;24.69;79.01;100609.13;5036518;28;20111;-69
2022/08/25 11:16:25;;;;;;;0.88;0.30;;;;;;;24.74;78.21;100614.44;5000401;28;20363;-69
2022/08/25 11:18:58;;;;;;;1.13;0.20;;;;;;;24.74;77.02;100608.78;4991042;28;20036;-69
2022/08/25 11:21:56;;;;;;;0.50;0.20;;;;;;;24.56;76.39;100613.41;5021843;28;20060;-69
2022/08/25 11:24:42;;;;;;;0.47;0.25;;;;;;;24.63;76.51;100605.81;5034804;28;20029;-69
2022/08/25 11:27:11;;;;;;;1.13;0.13;;;;;;;24.60;76.63;100603.75;5038106;28;20061;-69
2022/08/25 11:29:37;;;;;;;1.25;0.20;;;;;;;24.53;76.23;100606.47;5010761;28;20044;-69
2022/08/25 11:32:02;;;;;;;0.10;0.10;;;;;;;24.60;75.67;100602.91;5005071;28;20108;-69
2022/08/25 11:34:32;;;;;;;1.55;0.20;;;;;;;24.53;74.98;100609.31;5017657;28;20064;-69
2022/08/25 11:37:17;;;;;;;0.85;0.10;;;;;;;24.61;76.05;100613.06;5004877;28;20090;-69
2022/08/25 11:40:12;;;;;;;0.82;0.20;;;;;;;24.67;75.49;100625.72;5017256;28;20036;-69
2022/08/25 11:42:44;;;;;;;1.60;0.17;;;;;;;24.69;75.22;100623.31;5030919;28;20125;-69